sensor_id;sensor_type;location;lat;lon;timestamp;P1;durP1;ratioP1;P2;durP2;ratioP2
19816;SDS011;68323;49.394;8.434;2023-05-10T00:01:05;2.27;;;1.70;;
19816;SDS011;68323;49.394;8.434;2023-05-10T00:03:30;2.37;;;1.60;;
19816;SDS011;68323;49.394;8.434;2023-05-10T00:05:56;3.73;;;1.70;;
19816;SDS011;68323;49.394;8.434;2023-05-10T00:08:22;1.60;;;1.50;;
19816;SDS011;68323;49.394;8.434;2023-05-10T00:10:47;2.43;;;1.40;;
19816;SDS011;68323;49.394;8.434;2023-05-10T00:13:13;3.83;;;2.03;;
19816;SDS011;68323;49.394;8.434;2023-05-10T00:15:38;2.37;;;1.40;;
19816;SDS011;68323;49.394;8.434;2023-05-10T00:18:04;4.33;;;1.70;;
19816;SDS011;68323;49.394;8.434;2023-05-10T00:20:29;2.57;;;1.20;;
19816;SDS011;68323;49.394;8.434;2023-05-10T00:22:55;1.83;;;1.30;;
19816;SDS011;68323;49.394;8.434;2023-05-10T00:25:20;5.57;;;1.50;;
19816;SDS011;68323;49.394;8.434;2023-05-10T00:27:49;1.73;;;1.30;;
19816;SDS011;68323;49.394;8.434;2023-05-10T00:30:14;1.47;;;1.33;;
19816;SDS011;68323;49.394;8.434;2023-05-10T00:32:40;1.73;;;1.20;;
19816;SDS011;68323;49.394;8.434;2023-05-10T00:35:06;3.90;;;1.40;;
19816;SDS011;68323;49.394;8.434;2023-05-10T00:37:31;1.60;;;1.30;;
19816;SDS011;68323;49.394;8.434;2023-05-10T00:39:57;2.50;;;1.20;;
19816;SDS011;68323;49.394;8.434;2023-05-10T00:42:23;3.23;;;1.60;;
19816;SDS011;68323;49.394;8.434;2023-05-10T00:44:48;2.57;;;1.20;;
19816;SDS011;68323;49.394;8.434;2023-05-10T00:47:14;3.43;;;1.30;;
19816;SDS011;68323;49.394;8.434;2023-05-10T00:49:40;1.47;;;1.00;;
19816;SDS011;68323;49.394;8.434;2023-05-10T00:52:06;1.93;;;1.10;;
19816;SDS011;68323;49.394;8.434;2023-05-10T00:54:32;1.57;;;1.20;;
19816;SDS011;68323;49.394;8.434;2023-05-10T00:56:58;1.70;;;1.10;;
19816;SDS011;68323;49.394;8.434;2023-05-10T00:59:24;3.20;;;1.20;;
19816;SDS011;68323;49.394;8.434;2023-05-10T01:01:49;2.03;;;1.10;;
19816;SDS011;68323;49.394;8.434;2023-05-10T01:04:16;2.37;;;1.07;;
19816;SDS011;68323;49.394;8.434;2023-05-10T01:06:42;3.33;;;1.00;;
19816;SDS011;68323;49.394;8.434;2023-05-10T01:09:08;2.60;;;1.00;;
19816;SDS011;68323;49.394;8.434;2023-05-10T01:11:35;2.87;;;1.20;;
19816;SDS011;68323;49.394;8.434;2023-05-10T01:14:02;2.60;;;1.17;;
19816;SDS011;68323;49.394;8.434;2023-05-10T01:16:32;2.90;;;1.30;;
19816;SDS011;68323;49.394;8.434;2023-05-10T01:19:02;3.70;;;1.20;;
19816;SDS011;68323;49.394;8.434;2023-05-10T01:21:38;4.00;;;1.20;;
19816;SDS011;68323;49.394;8.434;2023-05-10T01:32:46;1.07;;;0.80;;
19816;SDS011;68323;49.394;8.434;2023-05-10T01:35:47;2.70;;;1.10;;
19816;SDS011;68323;49.394;8.434;2023-05-10T01:43:43;2.47;;;1.00;;
19816;SDS011;68323;49.394;8.434;2023-05-10T01:46:24;1.63;;;1.17;;
19816;SDS011;68323;49.394;8.434;2023-05-10T01:48:54;1.80;;;1.00;;
19816;SDS011;68323;49.394;8.434;2023-05-10T01:51:26;1.47;;;1.10;;
19816;SDS011;68323;49.394;8.434;2023-05-10T01:53:59;3.00;;;1.20;;
19816;SDS011;68323;49.394;8.434;2023-05-10T01:56:28;2.40;;;1.30;;
19816;SDS011;68323;49.394;8.434;2023-05-10T01:58:55;3.30;;;1.50;;
19816;SDS011;68323;49.394;8.434;2023-05-10T02:01:23;1.83;;;1.30;;
19816;SDS011;68323;49.394;8.434;2023-05-10T02:03:52;4.40;;;1.50;;
19816;SDS011;68323;49.394;8.434;2023-05-10T02:06:20;4.70;;;1.47;;
19816;SDS011;68323;49.394;8.434;2023-05-10T02:08:47;3.20;;;2.00;;
19816;SDS011;68323;49.394;8.434;2023-05-10T02:11:15;2.10;;;1.80;;
19816;SDS011;68323;49.394;8.434;2023-05-10T02:13:43;2.67;;;1.90;;
19816;SDS011;68323;49.394;8.434;2023-05-10T02:16:12;2.10;;;1.83;;
19816;SDS011;68323;49.394;8.434;2023-05-10T02:18:38;1.83;;;1.60;;
19816;SDS011;68323;49.394;8.434;2023-05-10T02:21:05;2.10;;;1.90;;
19816;SDS011;68323;49.394;8.434;2023-05-10T02:23:32;2.13;;;1.93;;
19816;SDS011;68323;49.394;8.434;2023-05-10T02:26:00;3.50;;;1.97;;
19816;SDS011;68323;49.394;8.434;2023-05-10T02:28:27;2.20;;;2.00;;
19816;SDS011;68323;49.394;8.434;2023-05-10T02:30:54;3.33;;;2.10;;
19816;SDS011;68323;49.394;8.434;2023-05-10T02:33:20;4.40;;;2.10;;
19816;SDS011;68323;49.394;8.434;2023-05-10T02:35:47;3.83;;;2.53;;
19816;SDS011;68323;49.394;8.434;2023-05-10T02:38:14;3.20;;;2.07;;
19816;SDS011;68323;49.394;8.434;2023-05-10T02:40:41;4.07;;;2.30;;
19816;SDS011;68323;49.394;8.434;2023-05-10T02:43:09;2.57;;;2.30;;
19816;SDS011;68323;49.394;8.434;2023-05-10T02:45:38;4.07;;;2.60;;
19816;SDS011;68323;49.394;8.434;2023-05-10T02:48:04;2.67;;;2.00;;
19816;SDS011;68323;49.394;8.434;2023-05-10T02:50:30;2.80;;;2.00;;
19816;SDS011;68323;49.394;8.434;2023-05-10T02:53:02;3.37;;;2.33;;
19816;SDS011;68323;49.394;8.434;2023-05-10T02:55:35;1.80;;;1.70;;
19816;SDS011;68323;49.394;8.434;2023-05-10T02:58:03;2.77;;;1.50;;
19816;SDS011;68323;49.394;8.434;2023-05-10T03:00:28;3.17;;;1.43;;
19816;SDS011;68323;49.394;8.434;2023-05-10T03:02:54;3.73;;;1.70;;
19816;SDS011;68323;49.394;8.434;2023-05-10T03:05:20;9.03;;;4.67;;
19816;SDS011;68323;49.394;8.434;2023-05-10T03:07:46;6.53;;;2.20;;
19816;SDS011;68323;49.394;8.434;2023-05-10T03:10:12;2.97;;;1.70;;
19816;SDS011;68323;49.394;8.434;2023-05-10T03:12:59;3.20;;;1.50;;
19816;SDS011;68323;49.394;8.434;2023-05-10T03:15:42;2.27;;;1.57;;
19816;SDS011;68323;49.394;8.434;2023-05-10T03:18:18;1.80;;;1.70;;
19816;SDS011;68323;49.394;8.434;2023-05-10T03:20:48;2.77;;;1.83;;
19816;SDS011;68323;49.394;8.434;2023-05-10T03:25:49;6.53;;;1.90;;
19816;SDS011;68323;49.394;8.434;2023-05-10T03:28:16;3.80;;;2.40;;
19816;SDS011;68323;49.394;8.434;2023-05-10T03:30:43;2.57;;;2.13;;
19816;SDS011;68323;49.394;8.434;2023-05-10T03:33:09;8.60;;;2.30;;
19816;SDS011;68323;49.394;8.434;2023-05-10T03:35:35;3.53;;;2.50;;
19816;SDS011;68323;49.394;8.434;2023-05-10T03:38:01;3.90;;;2.53;;
19816;SDS011;68323;49.394;8.434;2023-05-10T03:40:27;4.13;;;2.70;;
19816;SDS011;68323;49.394;8.434;2023-05-10T03:43:00;2.93;;;2.63;;
19816;SDS011;68323;49.394;8.434;2023-05-10T03:45:25;3.53;;;2.97;;
19816;SDS011;68323;49.394;8.434;2023-05-10T03:47:51;3.93;;;2.40;;
19816;SDS011;68323;49.394;8.434;2023-05-10T03:50:17;3.80;;;2.87;;
19816;SDS011;68323;49.394;8.434;2023-05-10T03:52:43;6.10;;;2.90;;
19816;SDS011;68323;49.394;8.434;2023-05-10T03:55:09;5.13;;;3.00;;
19816;SDS011;68323;49.394;8.434;2023-05-10T03:57:35;5.30;;;3.40;;
19816;SDS011;68323;49.394;8.434;2023-05-10T04:00:01;3.93;;;3.20;;
19816;SDS011;68323;49.394;8.434;2023-05-10T04:02:27;5.47;;;3.70;;
19816;SDS011;68323;49.394;8.434;2023-05-10T04:04:54;6.47;;;3.50;;
19816;SDS011;68323;49.394;8.434;2023-05-10T04:07:20;7.30;;;3.10;;
19816;SDS011;68323;49.394;8.434;2023-05-10T04:09:46;4.93;;;3.40;;
19816;SDS011;68323;49.394;8.434;2023-05-10T04:12:11;5.27;;;3.60;;
19816;SDS011;68323;49.394;8.434;2023-05-10T04:14:37;6.10;;;3.93;;
19816;SDS011;68323;49.394;8.434;2023-05-10T04:17:03;4.43;;;3.97;;
19816;SDS011;68323;49.394;8.434;2023-05-10T04:19:29;5.73;;;4.73;;
19816;SDS011;68323;49.394;8.434;2023-05-10T04:21:55;6.17;;;5.30;;
19816;SDS011;68323;49.394;8.434;2023-05-10T04:24:21;6.17;;;4.77;;
19816;SDS011;68323;49.394;8.434;2023-05-10T04:26:46;6.77;;;5.10;;
19816;SDS011;68323;49.394;8.434;2023-05-10T04:29:12;7.80;;;4.73;;
19816;SDS011;68323;49.394;8.434;2023-05-10T04:31:37;5.67;;;4.87;;
19816;SDS011;68323;49.394;8.434;2023-05-10T04:34:03;7.70;;;4.93;;
19816;SDS011;68323;49.394;8.434;2023-05-10T04:36:28;7.50;;;5.30;;
19816;SDS011;68323;49.394;8.434;2023-05-10T04:38:54;6.23;;;5.40;;
19816;SDS011;68323;49.394;8.434;2023-05-10T04:41:20;6.67;;;4.87;;
19816;SDS011;68323;49.394;8.434;2023-05-10T04:43:46;8.10;;;5.43;;
19816;SDS011;68323;49.394;8.434;2023-05-10T04:46:14;5.90;;;5.30;;
19816;SDS011;68323;49.394;8.434;2023-05-10T04:48:39;7.23;;;5.17;;
19816;SDS011;68323;49.394;8.434;2023-05-10T04:51:05;7.23;;;5.00;;
19816;SDS011;68323;49.394;8.434;2023-05-10T04:53:31;5.93;;;5.00;;
19816;SDS011;68323;49.394;8.434;2023-05-10T04:55:57;5.47;;;4.93;;
19816;SDS011;68323;49.394;8.434;2023-05-10T04:58:22;5.77;;;5.10;;
19816;SDS011;68323;49.394;8.434;2023-05-10T05:00:48;5.30;;;4.60;;
19816;SDS011;68323;49.394;8.434;2023-05-10T05:03:14;5.00;;;4.33;;
19816;SDS011;68323;49.394;8.434;2023-05-10T05:05:40;4.73;;;4.27;;
19816;SDS011;68323;49.394;8.434;2023-05-10T05:08:06;6.90;;;4.70;;
19816;SDS011;68323;49.394;8.434;2023-05-10T05:10:31;4.93;;;4.07;;
19816;SDS011;68323;49.394;8.434;2023-05-10T05:12:57;6.97;;;4.43;;
19816;SDS011;68323;49.394;8.434;2023-05-10T05:15:22;8.10;;;4.50;;
19816;SDS011;68323;49.394;8.434;2023-05-10T05:17:48;4.87;;;4.33;;
19816;SDS011;68323;49.394;8.434;2023-05-10T05:20:14;4.53;;;4.10;;
19816;SDS011;68323;49.394;8.434;2023-05-10T05:22:39;6.17;;;4.50;;
19816;SDS011;68323;49.394;8.434;2023-05-10T05:25:05;5.63;;;4.30;;
19816;SDS011;68323;49.394;8.434;2023-05-10T05:27:31;6.90;;;4.43;;
19816;SDS011;68323;49.394;8.434;2023-05-10T05:29:57;7.00;;;4.07;;
19816;SDS011;68323;49.394;8.434;2023-05-10T05:32:22;7.10;;;4.10;;
19816;SDS011;68323;49.394;8.434;2023-05-10T05:34:49;6.93;;;3.97;;
19816;SDS011;68323;49.394;8.434;2023-05-10T05:37:15;7.77;;;3.50;;
19816;SDS011;68323;49.394;8.434;2023-05-10T05:39:42;4.33;;;3.70;;
19816;SDS011;68323;49.394;8.434;2023-05-10T05:42:11;5.47;;;3.47;;
19816;SDS011;68323;49.394;8.434;2023-05-10T05:44:37;4.87;;;3.70;;
19816;SDS011;68323;49.394;8.434;2023-05-10T05:47:04;4.57;;;3.43;;
19816;SDS011;68323;49.394;8.434;2023-05-10T05:49:30;6.10;;;3.67;;
19816;SDS011;68323;49.394;8.434;2023-05-10T05:52:02;6.90;;;3.13;;
19816;SDS011;68323;49.394;8.434;2023-05-10T05:54:29;4.10;;;3.07;;
19816;SDS011;68323;49.394;8.434;2023-05-10T05:56:56;7.37;;;4.03;;
19816;SDS011;68323;49.394;8.434;2023-05-10T05:59:25;3.37;;;3.03;;
19816;SDS011;68323;49.394;8.434;2023-05-10T06:01:50;6.23;;;3.33;;
19816;SDS011;68323;49.394;8.434;2023-05-10T06:04:16;3.80;;;2.80;;
19816;SDS011;68323;49.394;8.434;2023-05-10T06:06:42;4.23;;;3.20;;
19816;SDS011;68323;49.394;8.434;2023-05-10T06:09:08;4.47;;;3.50;;
19816;SDS011;68323;49.394;8.434;2023-05-10T06:11:34;5.73;;;3.23;;
19816;SDS011;68323;49.394;8.434;2023-05-10T06:14:01;3.50;;;3.20;;
19816;SDS011;68323;49.394;8.434;2023-05-10T06:16:28;5.97;;;3.23;;
19816;SDS011;68323;49.394;8.434;2023-05-10T06:18:54;5.53;;;3.67;;
19816;SDS011;68323;49.394;8.434;2023-05-10T06:21:20;3.53;;;3.23;;
19816;SDS011;68323;49.394;8.434;2023-05-10T06:23:46;6.83;;;3.27;;
19816;SDS011;68323;49.394;8.434;2023-05-10T06:26:11;4.00;;;3.50;;
19816;SDS011;68323;49.394;8.434;2023-05-10T06:28:37;5.13;;;3.50;;
19816;SDS011;68323;49.394;8.434;2023-05-10T06:31:04;3.77;;;3.40;;
19816;SDS011;68323;49.394;8.434;2023-05-10T06:33:30;6.63;;;3.47;;
19816;SDS011;68323;49.394;8.434;2023-05-10T06:35:56;3.73;;;3.20;;
19816;SDS011;68323;49.394;8.434;2023-05-10T06:38:22;4.60;;;3.20;;
19816;SDS011;68323;49.394;8.434;2023-05-10T06:40:47;4.27;;;3.00;;
19816;SDS011;68323;49.394;8.434;2023-05-10T06:43:13;3.33;;;3.03;;
19816;SDS011;68323;49.394;8.434;2023-05-10T06:48:27;5.87;;;3.73;;
19816;SDS011;68323;49.394;8.434;2023-05-10T06:50:53;7.33;;;4.17;;
19816;SDS011;68323;49.394;8.434;2023-05-10T06:53:19;5.23;;;3.30;;
19816;SDS011;68323;49.394;8.434;2023-05-10T06:55:44;3.70;;;3.30;;
19816;SDS011;68323;49.394;8.434;2023-05-10T06:58:10;5.27;;;3.23;;
19816;SDS011;68323;49.394;8.434;2023-05-10T07:00:36;4.20;;;3.50;;
19816;SDS011;68323;49.394;8.434;2023-05-10T07:03:05;4.77;;;2.70;;
19816;SDS011;68323;49.394;8.434;2023-05-10T07:05:31;4.73;;;2.83;;
19816;SDS011;68323;49.394;8.434;2023-05-10T07:07:56;4.90;;;2.90;;
19816;SDS011;68323;49.394;8.434;2023-05-10T07:10:22;4.70;;;2.77;;
19816;SDS011;68323;49.394;8.434;2023-05-10T07:12:47;8.77;;;3.10;;
19816;SDS011;68323;49.394;8.434;2023-05-10T07:15:13;3.40;;;2.70;;
19816;SDS011;68323;49.394;8.434;2023-05-10T07:17:38;4.47;;;2.67;;
19816;SDS011;68323;49.394;8.434;2023-05-10T07:20:04;4.00;;;2.27;;
19816;SDS011;68323;49.394;8.434;2023-05-10T07:22:30;2.20;;;2.00;;
19816;SDS011;68323;49.394;8.434;2023-05-10T07:24:56;2.63;;;1.80;;
19816;SDS011;68323;49.394;8.434;2023-05-10T07:27:21;3.73;;;1.80;;
19816;SDS011;68323;49.394;8.434;2023-05-10T07:29:47;4.70;;;2.00;;
19816;SDS011;68323;49.394;8.434;2023-05-10T07:32:13;3.73;;;1.70;;
19816;SDS011;68323;49.394;8.434;2023-05-10T07:34:39;4.10;;;2.00;;
19816;SDS011;68323;49.394;8.434;2023-05-10T07:37:04;4.13;;;1.80;;
19816;SDS011;68323;49.394;8.434;2023-05-10T07:39:31;3.90;;;1.50;;
19816;SDS011;68323;49.394;8.434;2023-05-10T07:41:56;3.50;;;1.60;;
19816;SDS011;68323;49.394;8.434;2023-05-10T07:44:22;3.47;;;1.40;;
19816;SDS011;68323;49.394;8.434;2023-05-10T07:46:48;4.70;;;1.30;;
19816;SDS011;68323;49.394;8.434;2023-05-10T07:49:13;2.20;;;1.20;;
19816;SDS011;68323;49.394;8.434;2023-05-10T07:51:39;5.47;;;1.10;;
19816;SDS011;68323;49.394;8.434;2023-05-10T07:54:05;1.73;;;1.07;;
19816;SDS011;68323;49.394;8.434;2023-05-10T07:56:31;2.30;;;1.10;;
19816;SDS011;68323;49.394;8.434;2023-05-10T07:59:01;1.87;;;1.10;;
19816;SDS011;68323;49.394;8.434;2023-05-10T08:01:32;3.17;;;1.00;;
19816;SDS011;68323;49.394;8.434;2023-05-10T08:03:58;1.90;;;1.30;;
19816;SDS011;68323;49.394;8.434;2023-05-10T08:06:24;30.37;;;1.90;;
19816;SDS011;68323;49.394;8.434;2023-05-10T08:08:51;59.73;;;2.70;;
19816;SDS011;68323;49.394;8.434;2023-05-10T08:11:19;1.60;;;1.13;;
19816;SDS011;68323;49.394;8.434;2023-05-10T08:13:45;1.63;;;0.90;;
19816;SDS011;68323;49.394;8.434;2023-05-10T08:16:11;1.73;;;0.93;;
19816;SDS011;68323;49.394;8.434;2023-05-10T08:18:37;3.13;;;1.00;;
19816;SDS011;68323;49.394;8.434;2023-05-10T08:21:03;2.27;;;1.00;;
19816;SDS011;68323;49.394;8.434;2023-05-10T08:23:29;1.50;;;1.00;;
19816;SDS011;68323;49.394;8.434;2023-05-10T08:25:54;1.20;;;0.93;;
19816;SDS011;68323;49.394;8.434;2023-05-10T08:28:20;4.30;;;1.00;;
19816;SDS011;68323;49.394;8.434;2023-05-10T08:30:45;1.83;;;1.07;;
19816;SDS011;68323;49.394;8.434;2023-05-10T08:33:11;4.70;;;1.00;;
19816;SDS011;68323;49.394;8.434;2023-05-10T08:35:36;1.33;;;1.13;;
19816;SDS011;68323;49.394;8.434;2023-05-10T08:38:02;2.37;;;1.00;;
19816;SDS011;68323;49.394;8.434;2023-05-10T08:40:28;2.87;;;1.07;;
19816;SDS011;68323;49.394;8.434;2023-05-10T08:43:07;1.83;;;1.00;;
19816;SDS011;68323;49.394;8.434;2023-05-10T08:45:36;1.43;;;1.13;;
19816;SDS011;68323;49.394;8.434;2023-05-10T08:48:07;3.50;;;1.27;;
19816;SDS011;68323;49.394;8.434;2023-05-10T08:50:36;2.77;;;1.00;;
19816;SDS011;68323;49.394;8.434;2023-05-10T08:53:04;2.80;;;1.10;;
19816;SDS011;68323;49.394;8.434;2023-05-10T08:55:32;1.60;;;1.00;;
19816;SDS011;68323;49.394;8.434;2023-05-10T08:58:03;3.90;;;1.40;;
19816;SDS011;68323;49.394;8.434;2023-05-10T09:00:29;2.20;;;1.13;;
19816;SDS011;68323;49.394;8.434;2023-05-10T09:02:55;3.13;;;0.90;;
19816;SDS011;68323;49.394;8.434;2023-05-10T09:05:22;1.57;;;1.00;;
19816;SDS011;68323;49.394;8.434;2023-05-10T09:07:48;2.27;;;0.97;;
19816;SDS011;68323;49.394;8.434;2023-05-10T09:10:13;3.13;;;0.93;;
19816;SDS011;68323;49.394;8.434;2023-05-10T09:12:47;1.37;;;0.90;;
19816;SDS011;68323;49.394;8.434;2023-05-10T09:15:16;2.30;;;1.03;;
19816;SDS011;68323;49.394;8.434;2023-05-10T09:17:44;5.70;;;0.93;;
19816;SDS011;68323;49.394;8.434;2023-05-10T09:20:11;4.67;;;1.00;;
19816;SDS011;68323;49.394;8.434;2023-05-10T09:22:36;1.50;;;0.90;;
19816;SDS011;68323;49.394;8.434;2023-05-10T09:25:10;2.30;;;0.90;;
19816;SDS011;68323;49.394;8.434;2023-05-10T09:27:40;2.20;;;0.90;;
19816;SDS011;68323;49.394;8.434;2023-05-10T09:30:10;1.03;;;0.80;;
19816;SDS011;68323;49.394;8.434;2023-05-10T09:35:11;1.70;;;1.00;;
19816;SDS011;68323;49.394;8.434;2023-05-10T09:37:38;1.63;;;0.83;;
19816;SDS011;68323;49.394;8.434;2023-05-10T09:40:11;2.07;;;0.90;;
19816;SDS011;68323;49.394;8.434;2023-05-10T09:42:38;3.50;;;0.80;;
19816;SDS011;68323;49.394;8.434;2023-05-10T09:45:04;3.00;;;0.80;;
19816;SDS011;68323;49.394;8.434;2023-05-10T09:47:36;2.40;;;1.00;;
19816;SDS011;68323;49.394;8.434;2023-05-10T09:50:03;2.17;;;1.03;;
19816;SDS011;68323;49.394;8.434;2023-05-10T09:52:30;2.53;;;0.80;;
19816;SDS011;68323;49.394;8.434;2023-05-10T09:55:10;3.00;;;1.10;;
19816;SDS011;68323;49.394;8.434;2023-05-10T09:57:35;1.50;;;0.70;;
19816;SDS011;68323;49.394;8.434;2023-05-10T10:00:01;2.77;;;0.80;;
19816;SDS011;68323;49.394;8.434;2023-05-10T10:02:29;1.33;;;0.83;;
19816;SDS011;68323;49.394;8.434;2023-05-10T10:04:55;3.17;;;0.67;;
19816;SDS011;68323;49.394;8.434;2023-05-10T10:07:24;3.07;;;0.93;;
19816;SDS011;68323;49.394;8.434;2023-05-10T10:09:51;2.67;;;0.70;;
19816;SDS011;68323;49.394;8.434;2023-05-10T10:12:17;1.93;;;0.80;;
19816;SDS011;68323;49.394;8.434;2023-05-10T10:14:44;2.13;;;0.70;;
19816;SDS011;68323;49.394;8.434;2023-05-10T10:17:11;1.57;;;0.83;;
19816;SDS011;68323;49.394;8.434;2023-05-10T10:19:37;3.30;;;1.00;;
19816;SDS011;68323;49.394;8.434;2023-05-10T10:22:03;2.30;;;0.70;;
19816;SDS011;68323;49.394;8.434;2023-05-10T10:24:29;5.33;;;0.80;;
19816;SDS011;68323;49.394;8.434;2023-05-10T10:26:55;1.80;;;0.80;;
19816;SDS011;68323;49.394;8.434;2023-05-10T10:32:29;3.03;;;0.90;;
19816;SDS011;68323;49.394;8.434;2023-05-10T10:35:26;0.93;;;0.60;;
19816;SDS011;68323;49.394;8.434;2023-05-10T10:37:54;1.23;;;0.60;;
19816;SDS011;68323;49.394;8.434;2023-05-10T10:42:50;1.30;;;0.80;;
19816;SDS011;68323;49.394;8.434;2023-05-10T10:45:15;1.38;;;0.70;;
19816;SDS011;68323;49.394;8.434;2023-05-10T10:47:41;1.08;;;0.60;;
19816;SDS011;68323;49.394;8.434;2023-05-10T10:50:08;1.40;;;0.50;;
19816;SDS011;68323;49.394;8.434;2023-05-10T10:52:37;1.58;;;0.70;;
19816;SDS011;68323;49.394;8.434;2023-05-10T10:55:10;3.15;;;0.70;;
19816;SDS011;68323;49.394;8.434;2023-05-10T10:57:43;1.00;;;0.70;;
19816;SDS011;68323;49.394;8.434;2023-05-10T11:00:19;0.73;;;0.52;;
19816;SDS011;68323;49.394;8.434;2023-05-10T11:02:46;3.17;;;0.70;;
19816;SDS011;68323;49.394;8.434;2023-05-10T11:05:23;1.42;;;0.57;;
19816;SDS011;68323;49.394;8.434;2023-05-10T11:07:58;1.80;;;0.80;;
19816;SDS011;68323;49.394;8.434;2023-05-10T11:10:25;1.15;;;0.60;;
19816;SDS011;68323;49.394;8.434;2023-05-10T11:13:07;3.83;;;0.80;;
19816;SDS011;68323;49.394;8.434;2023-05-10T11:15:35;3.60;;;0.70;;
19816;SDS011;68323;49.394;8.434;2023-05-10T11:20:58;1.13;;;0.70;;
19816;SDS011;68323;49.394;8.434;2023-05-10T11:23:31;0.93;;;0.70;;
19816;SDS011;68323;49.394;8.434;2023-05-10T11:26:09;2.15;;;0.75;;
19816;SDS011;68323;49.394;8.434;2023-05-10T11:28:40;2.28;;;0.70;;
19816;SDS011;68323;49.394;8.434;2023-05-10T11:31:10;0.90;;;0.63;;
19816;SDS011;68323;49.394;8.434;2023-05-10T11:33:44;3.60;;;0.80;;
19816;SDS011;68323;49.394;8.434;2023-05-10T11:36:20;1.67;;;0.80;;
19816;SDS011;68323;49.394;8.434;2023-05-10T11:38:50;3.60;;;0.80;;
19816;SDS011;68323;49.394;8.434;2023-05-10T11:41:17;1.55;;;0.60;;
19816;SDS011;68323;49.394;8.434;2023-05-10T11:43:45;2.50;;;0.75;;
19816;SDS011;68323;49.394;8.434;2023-05-10T11:46:13;2.80;;;0.73;;
19816;SDS011;68323;49.394;8.434;2023-05-10T11:48:39;3.20;;;0.70;;
19816;SDS011;68323;49.394;8.434;2023-05-10T11:51:11;3.08;;;0.60;;
19816;SDS011;68323;49.394;8.434;2023-05-10T11:53:39;2.22;;;0.60;;
19816;SDS011;68323;49.394;8.434;2023-05-10T11:56:08;1.45;;;0.77;;
19816;SDS011;68323;49.394;8.434;2023-05-10T11:58:35;6.57;;;1.38;;
19816;SDS011;68323;49.394;8.434;2023-05-10T12:01:02;2.88;;;0.80;;
19816;SDS011;68323;49.394;8.434;2023-05-10T12:03:29;3.35;;;1.00;;
19816;SDS011;68323;49.394;8.434;2023-05-10T12:05:55;3.70;;;1.00;;
19816;SDS011;68323;49.394;8.434;2023-05-10T12:08:22;3.75;;;1.05;;
19816;SDS011;68323;49.394;8.434;2023-05-10T12:10:49;4.90;;;1.10;;
19816;SDS011;68323;49.394;8.434;2023-05-10T12:13:15;4.40;;;1.00;;
19816;SDS011;68323;49.394;8.434;2023-05-10T12:15:41;4.30;;;1.20;;
19816;SDS011;68323;49.394;8.434;2023-05-10T12:18:10;5.05;;;0.98;;
19816;SDS011;68323;49.394;8.434;2023-05-10T12:20:37;6.40;;;1.73;;
19816;SDS011;68323;49.394;8.434;2023-05-10T12:23:03;6.18;;;1.20;;
19816;SDS011;68323;49.394;8.434;2023-05-10T12:25:30;2.63;;;0.90;;
19816;SDS011;68323;49.394;8.434;2023-05-10T12:27:58;1.80;;;1.00;;
19816;SDS011;68323;49.394;8.434;2023-05-10T12:30:31;3.97;;;1.10;;
19816;SDS011;68323;49.394;8.434;2023-05-10T12:33:01;5.90;;;1.17;;
19816;SDS011;68323;49.394;8.434;2023-05-10T12:35:31;6.30;;;0.95;;
19816;SDS011;68323;49.394;8.434;2023-05-10T12:37:57;4.07;;;0.90;;
19816;SDS011;68323;49.394;8.434;2023-05-10T12:40:22;1.88;;;0.75;;
19816;SDS011;68323;49.394;8.434;2023-05-10T12:42:48;4.38;;;1.13;;
19816;SDS011;68323;49.394;8.434;2023-05-10T12:45:14;4.70;;;0.77;;
19816;SDS011;68323;49.394;8.434;2023-05-10T12:47:39;2.20;;;0.70;;
19816;SDS011;68323;49.394;8.434;2023-05-10T12:50:05;3.58;;;0.80;;
19816;SDS011;68323;49.394;8.434;2023-05-10T12:52:31;6.28;;;1.00;;
19816;SDS011;68323;49.394;8.434;2023-05-10T12:54:58;1.65;;;0.63;;
19816;SDS011;68323;49.394;8.434;2023-05-10T12:57:24;3.92;;;0.75;;
19816;SDS011;68323;49.394;8.434;2023-05-10T12:59:50;4.53;;;1.20;;
19816;SDS011;68323;49.394;8.434;2023-05-10T13:02:15;5.43;;;0.80;;
19816;SDS011;68323;49.394;8.434;2023-05-10T13:04:43;3.67;;;0.60;;
19816;SDS011;68323;49.394;8.434;2023-05-10T13:07:09;2.83;;;0.60;;
19816;SDS011;68323;49.394;8.434;2023-05-10T13:09:35;5.65;;;0.98;;
19816;SDS011;68323;49.394;8.434;2023-05-10T13:12:01;4.10;;;0.70;;
19816;SDS011;68323;49.394;8.434;2023-05-10T13:14:26;2.30;;;0.70;;
19816;SDS011;68323;49.394;8.434;2023-05-10T13:16:52;3.78;;;0.77;;
19816;SDS011;68323;49.394;8.434;2023-05-10T13:19:18;2.83;;;0.60;;
19816;SDS011;68323;49.394;8.434;2023-05-10T13:21:44;2.85;;;1.00;;
19816;SDS011;68323;49.394;8.434;2023-05-10T13:24:09;2.80;;;0.50;;
19816;SDS011;68323;49.394;8.434;2023-05-10T13:26:36;2.20;;;0.55;;
19816;SDS011;68323;49.394;8.434;2023-05-10T13:29:02;2.15;;;0.60;;
19816;SDS011;68323;49.394;8.434;2023-05-10T13:31:28;1.88;;;0.60;;
19816;SDS011;68323;49.394;8.434;2023-05-10T13:33:53;1.52;;;0.65;;
19816;SDS011;68323;49.394;8.434;2023-05-10T13:36:19;3.28;;;0.70;;
19816;SDS011;68323;49.394;8.434;2023-05-10T13:38:45;2.45;;;0.70;;
19816;SDS011;68323;49.394;8.434;2023-05-10T13:41:10;5.55;;;0.73;;
19816;SDS011;68323;49.394;8.434;2023-05-10T13:43:36;2.67;;;0.52;;
19816;SDS011;68323;49.394;8.434;2023-05-10T13:46:01;4.50;;;0.55;;
19816;SDS011;68323;49.394;8.434;2023-05-10T13:48:27;2.63;;;0.60;;
19816;SDS011;68323;49.394;8.434;2023-05-10T13:50:53;6.72;;;0.68;;
19816;SDS011;68323;49.394;8.434;2023-05-10T13:53:19;2.83;;;0.65;;
19816;SDS011;68323;49.394;8.434;2023-05-10T13:55:44;2.33;;;0.68;;
19816;SDS011;68323;49.394;8.434;2023-05-10T13:58:10;5.68;;;0.80;;
19816;SDS011;68323;49.394;8.434;2023-05-10T14:00:35;1.48;;;0.43;;
19816;SDS011;68323;49.394;8.434;2023-05-10T14:03:01;3.60;;;0.60;;
19816;SDS011;68323;49.394;8.434;2023-05-10T14:05:27;4.15;;;0.50;;
19816;SDS011;68323;49.394;8.434;2023-05-10T14:07:52;2.80;;;0.57;;
19816;SDS011;68323;49.394;8.434;2023-05-10T14:10:18;2.70;;;0.50;;
19816;SDS011;68323;49.394;8.434;2023-05-10T14:12:44;1.17;;;0.60;;
19816;SDS011;68323;49.394;8.434;2023-05-10T14:15:09;1.58;;;0.52;;
19816;SDS011;68323;49.394;8.434;2023-05-10T14:17:36;1.48;;;0.43;;
19816;SDS011;68323;49.394;8.434;2023-05-10T14:20:02;7.63;;;1.10;;
19816;SDS011;68323;49.394;8.434;2023-05-10T14:22:28;12.98;;;1.95;;
19816;SDS011;68323;49.394;8.434;2023-05-10T14:24:54;3.75;;;0.47;;
19816;SDS011;68323;49.394;8.434;2023-05-10T14:27:20;1.52;;;0.50;;
19816;SDS011;68323;49.394;8.434;2023-05-10T14:29:46;1.55;;;0.40;;
19816;SDS011;68323;49.394;8.434;2023-05-10T14:32:12;3.42;;;0.60;;
19816;SDS011;68323;49.394;8.434;2023-05-10T14:34:38;8.38;;;1.30;;
19816;SDS011;68323;49.394;8.434;2023-05-10T14:37:03;1.40;;;0.60;;
19816;SDS011;68323;49.394;8.434;2023-05-10T14:39:29;4.90;;;0.65;;
19816;SDS011;68323;49.394;8.434;2023-05-10T14:41:55;6.00;;;0.63;;
19816;SDS011;68323;49.394;8.434;2023-05-10T14:44:21;2.42;;;0.90;;
19816;SDS011;68323;49.394;8.434;2023-05-10T14:46:46;21.60;;;3.78;;
19816;SDS011;68323;49.394;8.434;2023-05-10T14:49:13;1.95;;;0.57;;
19816;SDS011;68323;49.394;8.434;2023-05-10T14:51:38;2.72;;;0.80;;
19816;SDS011;68323;49.394;8.434;2023-05-10T14:54:04;4.05;;;0.43;;
19816;SDS011;68323;49.394;8.434;2023-05-10T14:56:30;1.95;;;0.50;;
19816;SDS011;68323;49.394;8.434;2023-05-10T14:58:56;2.63;;;0.65;;
19816;SDS011;68323;49.394;8.434;2023-05-10T15:01:21;5.78;;;1.00;;
19816;SDS011;68323;49.394;8.434;2023-05-10T15:03:47;1.65;;;0.47;;
19816;SDS011;68323;49.394;8.434;2023-05-10T15:06:13;1.23;;;0.47;;
19816;SDS011;68323;49.394;8.434;2023-05-10T15:08:40;5.22;;;0.70;;
19816;SDS011;68323;49.394;8.434;2023-05-10T15:11:06;2.55;;;0.90;;
19816;SDS011;68323;49.394;8.434;2023-05-10T15:13:31;0.75;;;0.50;;
19816;SDS011;68323;49.394;8.434;2023-05-10T15:15:57;0.50;;;0.40;;
19816;SDS011;68323;49.394;8.434;2023-05-10T15:18:22;1.13;;;0.43;;